createdAt,value
2023-02-02T00:00:49.591Z,99547.28
2023-02-02T00:03:31.805Z,99555.81
2023-02-02T00:05:59.009Z,99552.50
2023-02-02T00:08:26.183Z,99554.91
2023-02-02T00:10:53.098Z,99543.78
2023-02-02T00:13:20.267Z,99507.78
2023-02-02T00:15:47.131Z,99475.84
2023-02-02T00:18:14.391Z,99479.91
2023-02-02T00:20:41.339Z,99477.75
2023-02-02T00:23:08.682Z,99473.63
2023-02-02T00:25:38.073Z,99464.63
2023-02-02T00:28:05.674Z,99461.38
2023-02-02T00:30:32.633Z,99460.25
2023-02-02T00:32:59.864Z,99451.72
2023-02-02T00:35:29.270Z,99437.91
2023-02-02T00:37:56.528Z,99443.34
2023-02-02T00:40:23.380Z,99445.91
2023-02-02T00:42:51.359Z,99444.41
2023-02-02T00:45:18.641Z,99452.88
2023-02-02T00:47:47.276Z,99441.69
2023-02-02T00:50:16.031Z,99450.81
2023-02-02T00:52:43.260Z,99439.41
2023-02-02T00:55:10.999Z,99452.59
2023-02-02T00:57:38.372Z,99462.03
2023-02-02T01:00:08.654Z,99468.22
2023-02-02T01:02:36.176Z,99475.50
2023-02-02T01:05:03.220Z,99471.53
2023-02-02T01:07:30.621Z,99474.72
2023-02-02T01:09:57.558Z,99470.78
2023-02-02T01:12:24.905Z,99474.38
2023-02-02T01:14:51.833Z,99474.09
2023-02-02T01:17:19.525Z,99471.66
2023-02-02T01:19:46.390Z,99476.47
2023-02-02T01:22:13.607Z,99477.47
2023-02-02T01:24:40.482Z,99480.97
2023-02-02T01:27:07.826Z,99489.16
2023-02-02T01:29:34.821Z,99483.25
2023-02-02T01:32:02.097Z,99446.53
2023-02-02T01:34:29.068Z,99448.03
2023-02-02T01:36:56.247Z,99449.72
2023-02-02T01:39:23.229Z,99445.75
2023-02-02T01:41:50.408Z,99464.03
2023-02-02T01:44:36.106Z,99454.31
2023-02-02T01:47:03.294Z,99457.34
2023-02-02T01:49:30.159Z,99460.06
2023-02-02T01:51:59.149Z,99444.63
2023-02-02T01:54:27.599Z,99464.03
2023-02-02T01:56:57.652Z,99452.63
2023-02-02T01:59:26.760Z,99453.50
2023-02-02T02:01:55.065Z,99457.28
2023-02-02T02:04:23.976Z,99458.75
2023-02-02T02:06:53.616Z,99463.03
2023-02-02T02:09:21.008Z,99463.94
2023-02-02T02:11:48.411Z,99474.13
2023-02-02T02:14:34.837Z,99471.75
2023-02-02T02:17:10.688Z,99483.34
2023-02-02T02:20:00.785Z,99481.97
2023-02-02T02:22:56.870Z,99473.78
2023-02-02T02:25:57.655Z,99471.47
2023-02-02T02:28:42.270Z,99486.63
2023-02-02T02:31:29.392Z,99484.41
2023-02-02T02:33:59.522Z,99477.34
2023-02-02T02:36:32.629Z,99472.81
2023-02-02T02:39:07.962Z,99462.63
2023-02-02T02:41:39.401Z,99456.91
2023-02-02T02:44:11.587Z,99462.09
2023-02-02T02:46:38.943Z,99457.09
2023-02-02T02:49:08.796Z,99457.28
2023-02-02T02:51:44.308Z,99453.13
2023-02-02T02:54:18.967Z,99455.75
2023-02-02T02:57:04.638Z,99447.25
2023-02-02T02:59:50.670Z,99448.84
2023-02-02T03:02:32.252Z,99451.63
2023-02-02T03:05:08.029Z,99450.44
2023-02-02T03:07:42.964Z,99459.81
2023-02-02T03:10:12.522Z,99461.41
2023-02-02T03:12:49.359Z,99467.97
2023-02-02T03:15:17.250Z,99465.06
2023-02-02T03:17:46.058Z,99460.84
2023-02-02T03:20:13.381Z,99472.25
2023-02-02T03:22:40.223Z,99453.63
2023-02-02T03:25:08.018Z,99458.13
2023-02-02T03:27:35.308Z,99456.09
2023-02-02T03:30:04.838Z,99465.91
2023-02-02T03:32:32.213Z,99458.31
2023-02-02T03:35:00.308Z,99468.31
2023-02-02T03:37:27.260Z,99465.88
2023-02-02T03:39:54.419Z,99459.94
2023-02-02T03:42:24.149Z,99467.66
2023-02-02T03:44:51.591Z,99462.78
2023-02-02T03:47:18.436Z,99463.25
2023-02-02T03:49:45.572Z,99453.72
2023-02-02T03:52:12.458Z,99455.41
2023-02-02T03:54:39.614Z,99452.03
2023-02-02T03:57:06.456Z,99452.81
2023-02-02T03:59:33.572Z,99452.47
2023-02-02T04:02:00.531Z,99440.31
2023-02-02T04:04:27.739Z,99440.44
2023-02-02T04:06:58.682Z,99446.91
2023-02-02T04:12:51.855Z,99447.00
2023-02-02T04:15:19.094Z,99448.69
2023-02-02T04:17:45.992Z,99452.50
2023-02-02T04:20:13.146Z,99450.34
2023-02-02T04:22:40.011Z,99458.66
2023-02-02T04:25:07.520Z,99465.09
2023-02-02T04:27:34.435Z,99469.75
2023-02-02T04:30:01.609Z,99468.28
2023-02-02T04:32:28.485Z,99466.97
2023-02-02T04:34:55.647Z,99477.81
2023-02-02T04:37:22.549Z,99486.84
2023-02-02T04:39:50.784Z,99483.94
2023-02-02T04:42:17.689Z,99476.63
2023-02-02T04:44:46.160Z,99476.28
2023-02-02T04:47:15.918Z,99462.44
2023-02-02T04:49:45.529Z,99458.47
2023-02-02T04:52:12.485Z,99446.25
2023-02-02T04:54:39.664Z,99439.91
2023-02-02T04:57:06.613Z,99451.41
2023-02-02T04:59:34.106Z,99449.63
2023-02-02T05:02:01.483Z,99451.31
2023-02-02T05:04:28.735Z,99449.91
2023-02-02T05:06:55.619Z,99451.81
2023-02-02T05:09:25.147Z,99453.03
2023-02-02T05:11:55.265Z,99465.03
2023-02-02T05:14:22.676Z,99462.19
2023-02-02T05:16:50.079Z,99480.66
2023-02-02T05:19:17.295Z,99482.56
2023-02-02T05:21:45.001Z,99493.50
2023-02-02T05:24:12.581Z,99486.78
2023-02-02T05:26:39.585Z,99483.88
2023-02-02T05:29:06.874Z,99492.94
2023-02-02T05:31:33.862Z,99484.75
2023-02-02T05:34:01.095Z,99482.19
2023-02-02T05:36:30.835Z,99488.09
2023-02-02T05:38:58.173Z,99497.06
2023-02-02T05:41:25.279Z,99497.06
2023-02-02T05:43:54.832Z,99481.91
2023-02-02T05:46:21.634Z,99491.41
2023-02-02T05:48:48.811Z,99506.88
2023-02-02T05:51:17.011Z,99510.19
2023-02-02T05:53:45.254Z,99508.03
2023-02-02T05:56:12.859Z,99511.97
2023-02-02T05:58:40.132Z,99517.63
2023-02-02T06:01:10.019Z,99515.84
2023-02-02T06:03:37.323Z,99521.22
2023-02-02T06:06:06.672Z,99517.63
2023-02-02T06:08:34.282Z,99524.59
2023-02-02T06:11:08.080Z,99532.53
2023-02-02T06:13:35.587Z,99540.81
2023-02-02T06:16:02.560Z,99545.34
2023-02-02T06:18:29.903Z,99552.06
2023-02-02T06:20:57.683Z,99551.00
2023-02-02T06:23:25.102Z,99553.84
2023-02-02T06:25:51.992Z,99553.06
2023-02-02T06:28:19.351Z,99561.28
2023-02-02T06:30:46.321Z,99563.34
2023-02-02T06:33:16.061Z,99560.81
2023-02-02T06:35:43.047Z,99567.13
2023-02-02T06:38:11.411Z,99566.94
2023-02-02T06:40:38.258Z,99571.00
2023-02-02T06:43:05.590Z,99563.19
2023-02-02T06:45:32.545Z,99572.88
2023-02-02T06:48:05.246Z,99591.00
2023-02-02T06:50:35.012Z,99592.91
2023-02-02T06:53:02.341Z,99591.75
2023-02-02T06:55:29.173Z,99593.81
2023-02-02T06:58:00.615Z,99607.91
2023-02-02T07:00:28.871Z,99615.16
2023-02-02T07:02:59.145Z,99608.72
2023-02-02T07:05:30.141Z,99608.72
2023-02-02T07:07:57.842Z,99609.56
2023-02-02T07:11:14.332Z,99615.88
2023-02-02T07:13:14.350Z,99616.94
2023-02-02T07:15:41.304Z,99615.19
2023-02-02T07:18:09.013Z,99621.91
2023-02-02T07:20:35.928Z,99619.94
2023-02-02T07:23:04.559Z,99629.84
2023-02-02T07:25:31.844Z,99620.88
2023-02-02T07:27:59.333Z,99620.41
2023-02-02T07:30:29.914Z,99624.94
2023-02-02T07:32:57.511Z,99642.69
2023-02-02T07:35:24.656Z,99636.25
2023-02-02T07:37:55.647Z,99622.44
2023-02-02T07:40:22.530Z,99644.91
2023-02-02T07:42:49.942Z,99633.78
2023-02-02T07:45:27.185Z,99652.84
2023-02-02T07:48:01.081Z,99641.97
2023-02-02T07:50:28.818Z,99647.50
2023-02-02T07:52:56.488Z,99646.16
2023-02-02T07:55:25.844Z,99645.97
2023-02-02T07:57:55.527Z,99647.47
2023-02-02T08:00:25.018Z,99646.84
2023-02-02T08:02:52.363Z,99656.81
2023-02-02T08:05:19.731Z,99653.44
2023-02-02T08:07:47.144Z,99652.78
2023-02-02T08:10:14.531Z,99653.63
2023-02-02T08:12:43.960Z,99661.47
2023-02-02T08:15:12.244Z,99653.84
2023-02-02T08:17:39.462Z,99649.31
2023-02-02T08:20:07.103Z,99650.63
2023-02-02T08:22:36.576Z,99652.81
2023-02-02T08:25:03.587Z,99655.56
2023-02-02T08:27:31.048Z,99661.06
2023-02-02T08:29:58.151Z,99663.25
2023-02-02T08:32:25.461Z,99664.13
2023-02-02T08:34:52.392Z,99678.06
2023-02-02T08:37:20.265Z,99666.28
2023-02-02T08:39:47.446Z,99676.22
2023-02-02T08:42:14.699Z,99675.72
2023-02-02T08:45:57.906Z,99682.75
2023-02-02T08:47:30.070Z,99685.06
2023-02-02T08:49:57.009Z,99684.94
2023-02-02T08:52:25.832Z,99679.44
2023-02-02T08:54:52.828Z,99690.09
2023-02-02T08:57:20.001Z,99689.00
2023-02-02T08:59:46.906Z,99698.00
2023-02-02T09:02:14.249Z,99702.44
2023-02-02T09:04:42.846Z,99705.97
2023-02-02T09:07:10.244Z,99699.63
2023-02-02T09:09:37.298Z,99699.09
2023-02-02T09:12:04.587Z,99683.16
2023-02-02T09:14:31.487Z,99689.38
2023-02-02T09:16:58.691Z,99700.34
2023-02-02T09:19:25.573Z,99699.78
2023-02-02T09:21:55.443Z,99709.41
2023-02-02T09:24:22.355Z,99705.59
2023-02-02T09:26:49.561Z,99704.66
2023-02-02T09:29:17.842Z,99703.44
2023-02-02T09:31:45.236Z,99697.44
2023-02-02T09:34:13.095Z,99712.00
2023-02-02T09:36:41.401Z,99710.47
2023-02-02T09:39:08.763Z,99702.72
2023-02-02T09:41:39.780Z,99717.69
2023-02-02T09:44:25.736Z,99723.63
2023-02-02T09:47:01.280Z,99706.75
2023-02-02T09:49:32.288Z,99706.91
2023-02-02T09:52:02.813Z,99718.72
2023-02-02T09:54:43.852Z,99707.50
2023-02-02T09:57:15.871Z,99729.25
2023-02-02T09:59:43.459Z,99724.28
2023-02-02T10:02:22.526Z,99719.63
2023-02-02T10:04:54.714Z,99727.81
2023-02-02T10:07:31.300Z,99722.38
2023-02-02T10:10:00.884Z,99718.94
2023-02-02T10:12:41.556Z,99721.41
2023-02-02T10:15:43.912Z,99727.44
2023-02-02T10:18:23.359Z,99732.16
2023-02-02T10:20:59.048Z,99727.97
2023-02-02T10:23:31.389Z,99734.22
2023-02-02T10:26:05.927Z,99732.38
2023-02-02T10:28:33.335Z,99734.69
2023-02-02T10:31:01.482Z,99737.72
2023-02-02T10:33:38.810Z,99734.22
2023-02-02T10:36:41.410Z,99737.44
2023-02-02T10:39:32.097Z,99731.19
2023-02-02T10:42:01.534Z,99734.97
2023-02-02T10:44:44.821Z,99723.06
2023-02-02T10:47:16.643Z,99739.06
2023-02-02T10:49:44.043Z,99729.81
2023-02-02T10:52:13.823Z,99725.59
2023-02-02T10:54:55.906Z,99731.09
2023-02-02T10:57:42.872Z,99734.28
2023-02-02T11:00:22.350Z,99732.28
2023-02-02T11:02:50.766Z,99738.50
2023-02-02T11:05:39.165Z,99742.31
2023-02-02T11:08:26.310Z,99741.47
2023-02-02T11:10:57.805Z,99743.38
2023-02-02T11:13:28.061Z,99736.81
2023-02-02T11:16:14.200Z,99741.03
2023-02-02T11:18:44.088Z,99737.75
2023-02-02T11:21:17.487Z,99747.50
2023-02-02T11:23:54.708Z,99747.16
2023-02-02T11:26:22.710Z,99749.63
2023-02-02T11:28:49.872Z,99749.09
2023-02-02T11:31:32.323Z,99749.78
2023-02-02T11:34:20.498Z,99750.75
2023-02-02T11:37:11.895Z,99756.72
2023-02-02T11:39:39.901Z,99746.16
2023-02-02T11:42:16.262Z,99751.84
2023-02-02T11:44:48.370Z,99743.81
2023-02-02T11:47:27.103Z,99745.75
2023-02-02T11:49:55.636Z,99743.66
2023-02-02T11:52:27.362Z,99742.44
2023-02-02T11:54:57.225Z,99746.50
2023-02-02T11:57:25.637Z,99746.75
2023-02-02T12:00:12.801Z,99742.03
2023-02-02T12:02:45.731Z,99738.06
2023-02-02T12:05:15.025Z,99722.63
2023-02-02T12:07:45.556Z,99736.91
2023-02-02T12:10:18.844Z,99727.69
2023-02-02T12:12:49.337Z,99732.97
2023-02-02T12:15:42.627Z,99735.44
2023-02-02T12:18:28.610Z,99727.00
2023-02-02T12:20:55.631Z,99722.50
2023-02-02T12:23:44.114Z,99722.97
2023-02-02T12:26:18.332Z,99728.19
2023-02-02T12:28:45.580Z,99733.19
2023-02-02T12:31:21.222Z,99721.19
2023-02-02T12:33:48.490Z,99716.72
2023-02-02T12:36:18.558Z,99717.50
2023-02-02T12:38:48.938Z,99713.28
2023-02-02T12:41:15.920Z,99718.28
2023-02-02T12:43:48.810Z,99709.09
2023-02-02T12:46:15.822Z,99698.44
2023-02-02T12:49:06.658Z,99701.53
2023-02-02T12:51:39.723Z,99705.91
2023-02-02T12:54:33.014Z,99702.72
2023-02-02T12:57:03.207Z,99702.34
2023-02-02T12:59:36.595Z,99708.09
2023-02-02T13:02:08.892Z,99709.44
2023-02-02T13:10:42.917Z,99703.88
2023-02-02T13:13:18.577Z,99713.13
2023-02-02T13:15:48.830Z,99709.09
2023-02-02T13:18:20.482Z,99705.34
2023-02-02T13:20:52.958Z,99718.59
2023-02-02T13:23:20.272Z,99706.28
2023-02-02T13:25:57.749Z,99704.78
2023-02-02T13:28:36.191Z,99704.47
2023-02-02T13:31:06.553Z,99713.00
2023-02-02T13:33:35.697Z,99707.44
2023-02-02T13:36:09.746Z,99711.72
2023-02-02T13:38:42.238Z,99708.47
2023-02-02T13:41:14.721Z,99712.94
2023-02-02T13:43:47.873Z,99711.94
2023-02-02T13:46:18.423Z,99718.66
2023-02-02T13:48:54.652Z,99700.41
2023-02-02T13:51:22.041Z,99720.59
2023-02-02T13:54:07.332Z,99724.56
2023-02-02T13:56:34.623Z,99720.81
2023-02-02T13:59:04.555Z,99730.56
2023-02-02T14:01:32.372Z,99724.78
2023-02-02T14:04:00.538Z,99732.28
2023-02-02T14:06:28.568Z,99735.03
2023-02-02T14:09:02.858Z,99735.03
2023-02-02T14:11:35.609Z,99739.00
2023-02-02T14:14:32.420Z,99748.97
2023-02-02T14:17:08.303Z,99745.19
2023-02-02T14:19:35.853Z,99752.16
2023-02-02T14:22:03.263Z,99752.03
2023-02-02T14:24:30.282Z,99756.72
2023-02-02T14:26:58.848Z,99761.84
2023-02-02T14:29:31.842Z,99760.00
2023-02-02T14:32:01.323Z,99764.38
2023-02-02T14:34:28.299Z,99759.59
2023-02-02T14:37:34.684Z,99757.25
2023-02-02T14:40:09.680Z,99765.88
2023-02-02T14:43:01.586Z,99779.59
2023-02-02T14:45:36.064Z,99789.84
2023-02-02T14:48:06.353Z,99782.84
2023-02-02T14:50:36.181Z,99791.53
2023-02-02T14:53:14.740Z,99789.75
2023-02-02T14:55:55.318Z,99801.41
2023-02-02T14:58:30.911Z,99793.31
2023-02-02T15:01:01.675Z,99802.94
2023-02-02T15:03:36.376Z,99795.88
2023-02-02T15:06:14.094Z,99802.03
2023-02-02T15:08:42.265Z,99801.47
2023-02-02T15:11:28.159Z,99800.63
2023-02-02T15:14:06.946Z,99800.06
2023-02-02T15:16:37.077Z,99808.69
2023-02-02T15:19:07.253Z,99821.91
2023-02-02T15:21:37.894Z,99812.09
2023-02-02T15:24:06.208Z,99815.69
2023-02-02T15:26:37.223Z,99822.97
2023-02-02T15:29:13.739Z,99818.13
2023-02-02T15:31:41.163Z,99823.97
2023-02-02T15:34:20.736Z,99829.09
2023-02-02T15:36:48.519Z,99835.69
2023-02-02T15:39:15.890Z,99828.69
2023-02-02T15:41:43.866Z,99832.66
2023-02-02T15:44:28.091Z,99838.16
2023-02-02T15:46:56.399Z,99849.84
2023-02-02T15:49:35.794Z,99857.13
2023-02-02T15:52:29.801Z,99860.97
2023-02-02T15:54:58.061Z,99870.13
2023-02-02T15:57:32.584Z,99873.53
2023-02-02T16:00:01.398Z,99876.25
2023-02-02T16:02:36.201Z,99884.19
2023-02-02T16:05:22.385Z,99885.25
2023-02-02T16:08:03.763Z,99887.97
2023-02-02T16:10:33.176Z,99900.25
2023-02-02T16:13:05.032Z,99904.53
2023-02-02T16:15:32.944Z,99914.88
2023-02-02T16:18:03.025Z,99907.78
2023-02-02T16:20:33.165Z,99911.91
2023-02-02T16:23:04.369Z,99925.53
2023-02-02T16:25:37.101Z,99931.31
2023-02-02T16:28:04.508Z,99925.66
2023-02-02T16:30:35.686Z,99930.66
2023-02-02T16:33:21.810Z,99932.94
2023-02-02T16:35:49.075Z,99939.47
2023-02-02T16:38:16.020Z,99946.16
2023-02-02T16:40:43.473Z,99952.28
2023-02-02T16:43:20.990Z,99951.13
2023-02-02T16:45:56.234Z,99964.03
2023-02-02T16:48:26.284Z,99960.88
2023-02-02T16:51:23.229Z,99962.41
2023-02-02T16:53:55.506Z,99966.44
2023-02-02T16:56:43.136Z,99970.56
2023-02-02T16:59:20.250Z,99979.53
2023-02-02T17:01:52.530Z,99974.06
2023-02-02T17:04:22.957Z,99976.03
2023-02-02T17:06:53.225Z,99989.28
2023-02-02T17:09:30.004Z,99982.00
2023-02-02T17:12:36.463Z,99993.13
2023-02-02T17:15:23.903Z,99987.97
2023-02-02T17:17:52.355Z,100004.22
2023-02-02T17:20:20.865Z,100002.72
2023-02-02T17:22:49.328Z,100001.81
2023-02-02T17:25:28.439Z,100011.44
2023-02-02T17:27:58.664Z,100001.75
2023-02-02T17:30:26.625Z,100005.97
2023-02-02T17:32:53.809Z,100014.94
2023-02-02T17:35:25.541Z,100016.47
2023-02-02T17:37:53.165Z,100031.19
2023-02-02T17:40:22.421Z,100034.25
2023-02-02T17:42:51.254Z,100040.50
2023-02-02T17:45:20.459Z,100051.72
2023-02-02T17:47:47.876Z,100052.00
2023-02-02T17:50:15.379Z,100053.25
2023-02-02T17:52:42.756Z,100059.03
2023-02-02T17:55:16.235Z,100061.91
2023-02-02T17:57:47.097Z,100055.38
2023-02-02T18:00:15.158Z,100068.59
2023-02-02T18:02:42.943Z,100076.06
2023-02-02T18:05:13.630Z,100076.94
2023-02-02T18:07:41.735Z,100073.13
2023-02-02T18:10:09.923Z,100087.56
2023-02-02T18:12:37.624Z,100084.25
2023-02-02T18:15:06.013Z,100075.75
2023-02-02T18:17:34.202Z,100082.25
2023-02-02T18:20:01.494Z,100085.91
2023-02-02T18:22:29.911Z,100089.13
2023-02-02T18:24:58.833Z,100091.41
2023-02-02T18:27:29.456Z,100093.81
2023-02-02T18:29:57.176Z,100092.78
2023-02-02T18:32:25.182Z,100090.34
2023-02-02T18:34:55.914Z,100095.78
2023-02-02T18:37:25.856Z,100102.50
2023-02-02T18:39:54.059Z,100100.22
2023-02-02T18:42:26.120Z,100094.44
2023-02-02T18:44:55.233Z,100109.34
2023-02-02T18:47:22.535Z,100109.34
2023-02-02T18:49:51.903Z,100112.81
2023-02-02T18:52:19.504Z,100116.31
2023-02-02T18:54:51.824Z,100120.72
2023-02-02T18:57:19.568Z,100128.63
2023-02-02T18:59:46.971Z,100125.59
2023-02-02T19:02:18.264Z,100141.22
2023-02-02T19:05:04.700Z,100130.00
2023-02-02T19:07:50.984Z,100139.56
2023-02-02T19:10:18.726Z,100152.00
2023-02-02T19:13:09.620Z,100155.06
2023-02-02T19:15:38.097Z,100161.13
2023-02-02T19:18:15.009Z,100178.91
2023-02-02T19:20:42.860Z,100172.97
2023-02-02T19:23:17.174Z,100183.34
2023-02-02T19:25:46.801Z,100167.06
2023-02-02T19:28:22.635Z,100174.22
2023-02-02T19:30:51.154Z,100193.66
2023-02-02T19:33:19.328Z,100183.47
2023-02-02T19:35:49.333Z,100190.16
2023-02-02T19:38:17.948Z,100196.38
2023-02-02T19:40:45.277Z,100211.72
2023-02-02T19:43:13.564Z,100207.47
2023-02-02T19:45:43.580Z,100215.53
2023-02-02T19:48:15.033Z,100228.31
2023-02-02T19:50:42.532Z,100214.78
2023-02-02T19:53:16.524Z,100227.09
2023-02-02T19:55:44.411Z,100226.47
2023-02-02T19:58:32.476Z,100224.03
2023-02-02T20:01:03.249Z,100231.03
2023-02-02T20:03:43.080Z,100237.13
2023-02-02T20:06:18.011Z,100232.84
2023-02-02T20:08:45.882Z,100247.47
2023-02-02T20:11:23.456Z,100241.50
2023-02-02T20:13:51.701Z,100256.28
2023-02-02T20:16:23.461Z,100245.19
2023-02-02T20:18:54.080Z,100252.63
2023-02-02T20:21:27.478Z,100261.88
2023-02-02T20:23:54.978Z,100263.25
2023-02-02T20:26:28.131Z,100257.78
2023-02-02T20:28:57.238Z,100261.28
2023-02-02T20:31:26.276Z,100272.06
2023-02-02T20:33:55.560Z,100268.72
2023-02-02T20:36:25.404Z,100266.59
2023-02-02T20:38:56.090Z,100269.00
2023-02-02T20:41:23.298Z,100260.66
2023-02-02T20:43:50.813Z,100275.53
2023-02-02T20:46:18.213Z,100278.28
2023-02-02T20:48:49.132Z,100283.63
2023-02-02T20:51:16.981Z,100303.38
2023-02-02T20:53:44.702Z,100307.31
2023-02-02T20:56:12.017Z,100308.22
2023-02-02T20:58:39.369Z,100311.09
2023-02-02T21:01:06.463Z,100305.72
2023-02-02T21:03:33.876Z,100312.56
2023-02-02T21:06:00.925Z,100328.66
2023-02-02T21:08:28.245Z,100318.63
2023-02-02T21:10:55.079Z,100324.38
2023-02-02T21:13:23.223Z,100330.47
2023-02-02T21:15:50.081Z,100326.41
2023-02-02T21:18:17.447Z,100331.16
2023-02-02T21:20:44.489Z,100329.22
2023-02-02T21:23:12.205Z,100335.00
2023-02-02T21:25:39.022Z,100337.75
2023-02-02T21:28:06.261Z,100346.53
2023-02-02T21:30:33.388Z,100351.53
2023-02-02T21:33:00.797Z,100354.41
2023-02-02T21:35:28.000Z,100345.59
2023-02-02T21:37:56.711Z,100354.38
2023-02-02T21:40:28.816Z,100370.03
2023-02-02T21:42:58.259Z,100366.97
2023-02-02T21:45:32.216Z,100369.75
2023-02-02T21:48:01.113Z,100374.78
2023-02-02T21:50:29.530Z,100376.63
2023-02-02T21:53:12.932Z,100383.03
2023-02-02T21:55:40.404Z,100388.22
2023-02-02T21:58:13.889Z,100394.63
2023-02-02T22:00:43.233Z,100394.91
2023-02-02T22:03:36.726Z,100394.91
2023-02-02T22:06:09.741Z,100400.38
2023-02-02T22:08:37.243Z,100389.44
2023-02-02T22:11:04.262Z,100399.78
2023-02-02T22:13:34.065Z,100399.44
2023-02-02T22:16:01.081Z,100417.06
2023-02-02T22:18:29.327Z,100409.72
2023-02-02T22:20:56.603Z,100404.34
2023-02-02T22:23:27.904Z,100401.16
2023-02-02T22:25:56.150Z,100407.06
2023-02-02T22:28:42.496Z,100408.84
2023-02-02T22:31:11.995Z,100408.38
2023-02-02T22:33:41.894Z,100404.13
2023-02-02T22:36:08.867Z,100407.56
2023-02-02T22:38:36.283Z,100409.84
2023-02-02T22:41:03.272Z,100409.53
2023-02-02T22:43:30.757Z,100415.13
2023-02-02T22:45:57.615Z,100417.44
2023-02-02T22:48:24.853Z,100412.59
2023-02-02T22:50:51.741Z,100415.94
2023-02-02T22:53:18.973Z,100411.88
2023-02-02T22:55:45.967Z,100420.53
2023-02-02T22:58:16.168Z,100419.66
2023-02-02T23:00:43.083Z,100418.09
2023-02-02T23:03:10.360Z,100424.78
2023-02-02T23:05:37.412Z,100427.25
2023-02-02T23:08:04.751Z,100431.63
2023-02-02T23:10:35.438Z,100432.09
2023-02-02T23:13:06.077Z,100424.81
2023-02-02T23:15:33.308Z,100434.41
2023-02-02T23:18:00.956Z,100439.00
2023-02-02T23:20:28.200Z,100437.34
2023-02-02T23:22:55.577Z,100437.53
2023-02-02T23:25:22.839Z,100430.81
2023-02-02T23:27:50.368Z,100445.47
2023-02-02T23:30:22.085Z,100446.81
2023-02-02T23:32:49.464Z,100443.06
2023-02-02T23:35:16.303Z,100439.25
2023-02-02T23:37:43.523Z,100446.25
2023-02-02T23:40:10.915Z,100440.63
2023-02-02T23:42:38.185Z,100440.44
2023-02-02T23:45:05.309Z,100445.91
2023-02-02T23:47:33.412Z,100438.63
2023-02-02T23:50:05.458Z,100446.06
2023-02-02T23:52:33.764Z,100454.59
2023-02-02T23:55:01.552Z,100455.34
2023-02-02T23:57:33.761Z,100464.63
